Terminal Aerodrome Forecast
Issued by NWS

Home | Current Version | Previous Version | Text Only | Print | Product List | Glossary On
Versions: 1 2 3 4 5 6 7 8 9 10 11 12 13 14 15 16 17 18 19 20
000
FTUS46 KSGX 041734
TAFSNA
TAF
KSNA 041734Z 0418/0518 18006KT P6SM SCT025 OVC035
     FM041900 21010KT P6SM SCT035
     FM050330 VRB05KT P6SM BKN025
     FM051700 VRB03KT P6SM FEW025=

USA.gov is the U.S. government's official web portal to all federal, state and local government web resources and services.